Joao Pinheiro, Brazil
Current Conditions -  °F | °C
As of 12:00 AM on Thursday 18 Dec 2014 (Local Time) from SBUL Reporting Station
Thunderstorm Thunderstorm  
Wind Chill: 72°   Ceiling: Unl
Heat Index: 72°   Visibility: 6mi
Dew Point: 66°   Wind: 5mph
Humidity: 83%   Direction: 190°S
Pressure: 30"   Gusts: NA
Location:  17.74°S, 46.17°W
Report Text: SBUL 180200Z 19004KT 9999 VCTS SCT045 FEW050CB 22/19 Q1016
Loading
Personal Weather Stations






























Interactive Weather Map New forecast layout! Learn more

10-Day Weather Forecast

Advertisements
Track Severe Weather on mobile